createdAt,value
2023-02-03T00:01:10.000Z,279.15
2023-02-03T00:03:16.000Z,279.15
2023-02-03T00:04:42.000Z,279.15
2023-02-03T00:06:48.000Z,279.15
2023-02-03T00:08:15.000Z,279.15
2023-02-03T00:10:21.000Z,279.09
2023-02-03T00:11:48.000Z,279.15
2023-02-03T00:13:54.000Z,279.21
2023-02-03T00:15:20.000Z,279.15
2023-02-03T00:17:27.000Z,279.21
2023-02-03T00:20:18.000Z,279.21
2023-02-03T00:21:44.000Z,279.27
2023-02-03T00:23:51.000Z,279.27
2023-02-03T00:25:17.000Z,279.27
2023-02-03T00:27:23.000Z,279.21
2023-02-03T00:28:50.000Z,279.21
2023-02-03T00:30:56.000Z,279.27
2023-02-03T00:32:22.000Z,279.21
2023-02-03T00:34:29.000Z,279.21
2023-02-03T00:35:55.000Z,279.27
2023-02-03T00:38:02.000Z,279.21
2023-02-03T00:39:28.000Z,279.21
2023-02-03T00:41:34.000Z,279.27
2023-02-03T00:43:01.000Z,279.27
2023-02-03T00:45:07.000Z,279.21
2023-02-03T00:46:34.000Z,279.21
2023-02-03T00:48:40.000Z,279.21
2023-02-03T00:50:06.000Z,279.21
2023-02-03T00:52:12.000Z,279.21
2023-02-03T00:53:39.000Z,279.21
2023-02-03T00:55:45.000Z,279.27
2023-02-03T00:58:37.000Z,279.21
2023-02-03T01:00:03.000Z,279.21
2023-02-03T01:02:09.000Z,279.21
2023-02-03T01:03:36.000Z,279.21
2023-02-03T01:05:42.000Z,279.21
2023-02-03T01:07:08.000Z,279.21
2023-02-03T01:09:15.000Z,279.27
2023-02-03T01:10:41.000Z,279.21
2023-02-03T01:12:47.000Z,279.21
2023-02-03T01:14:14.000Z,279.21
2023-02-03T01:16:20.000Z,279.15
2023-02-03T01:17:47.000Z,279.15
2023-02-03T01:19:53.000Z,279.15
2023-02-03T01:21:19.000Z,279.15
2023-02-03T01:23:26.000Z,279.15
2023-02-03T01:24:52.000Z,279.21
2023-02-03T01:26:58.000Z,279.27
2023-02-03T01:28:25.000Z,279.27
2023-02-03T01:30:31.000Z,279.21
2023-02-03T01:31:58.000Z,279.21
2023-02-03T01:34:04.000Z,279.27
2023-02-03T01:36:55.000Z,279.27
2023-02-03T01:38:22.000Z,279.4
2023-02-03T01:40:28.000Z,279.4
2023-02-03T01:41:54.000Z,279.34
2023-02-03T01:44:00.000Z,279.27
2023-02-03T01:45:27.000Z,279.34
2023-02-03T01:47:33.000Z,279.34
2023-02-03T01:48:59.000Z,279.34
2023-02-03T01:51:06.000Z,279.34
2023-02-03T01:52:32.000Z,279.27
2023-02-03T01:54:38.000Z,279.27
2023-02-03T01:56:05.000Z,279.34
2023-02-03T01:58:11.000Z,279.34
2023-02-03T01:59:37.000Z,279.27
2023-02-03T02:01:43.000Z,279.34
2023-02-03T02:03:10.000Z,279.4
2023-02-03T02:05:16.000Z,279.34
2023-02-03T02:06:43.000Z,279.34
2023-02-03T02:08:49.000Z,279.34
2023-02-03T02:10:15.000Z,279.4
2023-02-03T02:12:21.000Z,279.46
2023-02-03T02:15:12.000Z,279.4
2023-02-03T02:16:39.000Z,279.4
2023-02-03T02:18:45.000Z,279.4
2023-02-03T02:20:12.000Z,279.4
2023-02-03T02:22:18.000Z,279.4
2023-02-03T02:23:44.000Z,279.46
2023-02-03T02:25:51.000Z,279.46
2023-02-03T02:27:17.000Z,279.4
2023-02-03T02:29:23.000Z,279.4
2023-02-03T02:30:50.000Z,279.4
2023-02-03T02:32:56.000Z,279.46
2023-02-03T02:34:22.000Z,279.46
2023-02-03T02:36:28.000Z,279.4
2023-02-03T02:37:55.000Z,279.46
2023-02-03T02:40:01.000Z,279.4
2023-02-03T02:41:28.000Z,279.4
2023-02-03T02:43:34.000Z,279.27
2023-02-03T02:45:00.000Z,279.34
2023-02-03T02:47:06.000Z,279.34
2023-02-03T02:48:33.000Z,279.34
2023-02-03T02:50:39.000Z,279.4
2023-02-03T02:53:30.000Z,279.34
2023-02-03T02:54:57.000Z,279.34
2023-02-03T02:57:03.000Z,279.34
2023-02-03T02:58:29.000Z,279.34
2023-02-03T03:00:35.000Z,279.27
2023-02-03T03:02:02.000Z,279.27
2023-02-03T03:04:08.000Z,279.27
2023-02-03T03:05:35.000Z,279.34
2023-02-03T03:07:41.000Z,279.34
2023-02-03T03:09:07.000Z,279.34
2023-02-03T03:11:13.000Z,279.34
2023-02-03T03:12:40.000Z,279.27
2023-02-03T03:14:46.000Z,279.21
2023-02-03T03:16:13.000Z,279.21
2023-02-03T03:18:19.000Z,279.21
2023-02-03T03:19:46.000Z,279.21
2023-02-03T03:21:52.000Z,279.15
2023-02-03T03:23:18.000Z,279.21
2023-02-03T03:25:24.000Z,279.15
2023-02-03T03:26:51.000Z,279.15
2023-02-03T03:28:57.000Z,279.15
2023-02-03T03:31:48.000Z,279.21
2023-02-03T03:33:15.000Z,279.21
2023-02-03T03:35:21.000Z,279.21
2023-02-03T03:36:48.000Z,279.21
2023-02-03T03:38:54.000Z,279.27
2023-02-03T03:40:20.000Z,279.27
2023-02-03T03:42:26.000Z,279.27
2023-02-03T03:43:56.000Z,279.27
2023-02-03T03:46:02.000Z,279.27
2023-02-03T03:47:29.000Z,279.34
2023-02-03T03:49:35.000Z,279.27
2023-02-03T03:51:01.000Z,279.27
2023-02-03T03:53:07.000Z,279.4
2023-02-03T03:54:34.000Z,279.34
2023-02-03T03:56:40.000Z,279.4
2023-02-03T03:58:06.000Z,279.4
2023-02-03T04:00:13.000Z,279.46
2023-02-03T04:01:39.000Z,279.4
2023-02-03T04:03:45.000Z,279.4
2023-02-03T04:05:12.000Z,279.4
2023-02-03T04:07:18.000Z,279.4
2023-02-03T04:10:09.000Z,279.4
2023-02-03T04:11:36.000Z,279.4
2023-02-03T04:13:42.000Z,279.4
2023-02-03T04:15:09.000Z,279.46
2023-02-03T04:17:15.000Z,279.4
2023-02-03T04:18:41.000Z,279.4
2023-02-03T04:20:47.000Z,279.34
2023-02-03T04:22:14.000Z,279.34
2023-02-03T04:24:20.000Z,279.4
2023-02-03T04:25:47.000Z,279.46
2023-02-03T04:27:53.000Z,279.46
2023-02-03T04:29:19.000Z,279.46
2023-02-03T04:31:25.000Z,279.46
2023-02-03T04:32:52.000Z,279.46
2023-02-03T04:34:58.000Z,279.4
2023-02-03T04:36:25.000Z,279.4
2023-02-03T04:38:31.000Z,279.4
2023-02-03T04:39:57.000Z,279.4
2023-02-03T04:42:03.000Z,279.4
2023-02-03T04:43:30.000Z,279.4
2023-02-03T04:45:36.000Z,279.4
2023-02-03T04:48:27.000Z,279.34
2023-02-03T04:49:54.000Z,279.4
2023-02-03T04:52:00.000Z,279.46
2023-02-03T04:53:26.000Z,279.4
2023-02-03T04:55:32.000Z,279.4
2023-02-03T04:56:59.000Z,279.4
2023-02-03T04:59:05.000Z,279.4
2023-02-03T05:00:31.000Z,279.34
2023-02-03T05:02:37.000Z,279.27
2023-02-03T05:04:04.000Z,279.34
2023-02-03T05:06:10.000Z,279.34
2023-02-03T05:07:37.000Z,279.34
2023-02-03T05:09:43.000Z,279.34
2023-02-03T05:11:09.000Z,279.27
2023-02-03T05:13:15.000Z,279.4
2023-02-03T05:14:42.000Z,279.4
2023-02-03T05:16:48.000Z,279.4
2023-02-03T05:18:15.000Z,279.46
2023-02-03T05:20:21.000Z,279.4
2023-02-03T05:21:47.000Z,279.34
2023-02-03T05:23:53.000Z,279.34
2023-02-03T05:26:45.000Z,279.4
2023-02-03T05:28:11.000Z,279.46
2023-02-03T05:30:17.000Z,279.4
2023-02-03T05:31:44.000Z,279.46
2023-02-03T05:33:50.000Z,279.4
2023-02-03T05:35:17.000Z,279.46
2023-02-03T05:37:23.000Z,279.4
2023-02-03T05:38:50.000Z,279.4
2023-02-03T05:40:56.000Z,279.4
2023-02-03T05:42:22.000Z,279.4
2023-02-03T05:44:28.000Z,279.4
2023-02-03T05:45:55.000Z,279.4
2023-02-03T05:48:01.000Z,279.34
2023-02-03T05:49:28.000Z,279.34
2023-02-03T05:51:34.000Z,279.34
2023-02-03T05:53:00.000Z,279.34
2023-02-03T05:55:06.000Z,279.4
2023-02-03T05:56:33.000Z,279.4
2023-02-03T05:58:39.000Z,279.4
2023-02-03T06:00:06.000Z,279.4
2023-02-03T06:02:12.000Z,279.34
2023-02-03T06:05:03.000Z,279.52
2023-02-03T06:06:29.000Z,279.52
2023-02-03T06:08:35.000Z,279.46
2023-02-03T06:10:02.000Z,279.46
2023-02-03T06:12:08.000Z,279.46
2023-02-03T06:13:35.000Z,279.52
2023-02-03T06:15:41.000Z,279.46
2023-02-03T06:17:07.000Z,279.4
2023-02-03T06:19:13.000Z,279.4
2023-02-03T06:20:40.000Z,279.46
2023-02-03T06:22:47.000Z,279.46
2023-02-03T06:24:13.000Z,279.46
2023-02-03T06:26:19.000Z,279.4
2023-02-03T06:27:46.000Z,279.4
2023-02-03T06:29:52.000Z,279.4
2023-02-03T06:31:18.000Z,279.52
2023-02-03T06:33:25.000Z,279.46
2023-02-03T06:34:51.000Z,279.46
2023-02-03T06:36:57.000Z,279.52
2023-02-03T06:38:24.000Z,279.59
2023-02-03T06:40:30.000Z,279.46
2023-02-03T06:43:21.000Z,279.46
2023-02-03T06:44:48.000Z,279.46
2023-02-03T06:46:54.000Z,279.46
2023-02-03T06:48:20.000Z,279.46
2023-02-03T06:50:26.000Z,279.52
2023-02-03T06:51:54.000Z,279.52
2023-02-03T06:54:00.000Z,279.46
2023-02-03T06:55:26.000Z,279.52
2023-02-03T06:57:33.000Z,279.46
2023-02-03T06:58:59.000Z,279.46
2023-02-03T07:01:05.000Z,279.46
2023-02-03T07:02:32.000Z,279.46
2023-02-03T07:04:38.000Z,279.4
2023-02-03T07:06:05.000Z,279.46
2023-02-03T07:08:11.000Z,279.52
2023-02-03T07:09:37.000Z,279.52
2023-02-03T07:11:43.000Z,279.59
2023-02-03T07:13:10.000Z,279.59
2023-02-03T07:15:16.000Z,279.52
2023-02-03T07:16:43.000Z,279.52
2023-02-03T07:18:49.000Z,279.46
2023-02-03T07:21:40.000Z,279.59
2023-02-03T07:23:07.000Z,279.59
2023-02-03T07:25:13.000Z,279.52
2023-02-03T07:26:39.000Z,279.59
2023-02-03T07:28:45.000Z,279.52
2023-02-03T07:30:12.000Z,279.52
2023-02-03T07:32:18.000Z,279.52
2023-02-03T07:33:44.000Z,279.59
2023-02-03T07:35:51.000Z,279.52
2023-02-03T07:37:17.000Z,279.59
2023-02-03T07:39:23.000Z,279.65
2023-02-03T07:40:50.000Z,279.59
2023-02-03T07:42:56.000Z,279.59
2023-02-03T07:44:22.000Z,279.59
2023-02-03T07:46:29.000Z,279.65
2023-02-03T07:47:55.000Z,279.65
2023-02-03T07:50:01.000Z,279.65
2023-02-03T07:51:28.000Z,279.71
2023-02-03T07:53:34.000Z,279.71
2023-02-03T07:55:00.000Z,279.71
2023-02-03T07:57:06.000Z,279.71
2023-02-03T07:59:58.000Z,279.65
2023-02-03T08:01:24.000Z,279.65
2023-02-03T08:03:30.000Z,279.65
2023-02-03T08:04:57.000Z,279.65
2023-02-03T08:07:03.000Z,279.65
2023-02-03T08:08:30.000Z,279.65
2023-02-03T08:10:36.000Z,279.65
2023-02-03T08:12:03.000Z,279.65
2023-02-03T08:14:09.000Z,279.59
2023-02-03T08:15:35.000Z,279.59
2023-02-03T08:17:41.000Z,279.59
2023-02-03T08:19:08.000Z,279.59
2023-02-03T08:21:14.000Z,279.59
2023-02-03T08:22:41.000Z,279.59
2023-02-03T08:24:47.000Z,279.59
2023-02-03T08:26:14.000Z,279.59
2023-02-03T08:28:20.000Z,279.59
2023-02-03T08:29:46.000Z,279.59
2023-02-03T08:31:52.000Z,279.59
2023-02-03T08:33:19.000Z,279.59
2023-02-03T08:35:25.000Z,279.59
2023-02-03T08:38:17.000Z,279.59
2023-02-03T08:39:43.000Z,279.59
2023-02-03T08:41:49.000Z,279.59
2023-02-03T08:43:16.000Z,279.59
2023-02-03T08:45:22.000Z,279.65
2023-02-03T08:46:48.000Z,279.65
2023-02-03T08:48:55.000Z,279.71
2023-02-03T08:50:21.000Z,279.71
2023-02-03T08:52:27.000Z,279.65
2023-02-03T08:53:54.000Z,279.71
2023-02-03T08:56:00.000Z,279.65
2023-02-03T08:57:26.000Z,279.65
2023-02-03T08:59:33.000Z,279.71
2023-02-03T09:00:59.000Z,279.77
2023-02-03T09:03:05.000Z,279.71
2023-02-03T09:04:32.000Z,279.71
2023-02-03T09:06:38.000Z,279.71
2023-02-03T09:08:04.000Z,279.77
2023-02-03T09:10:10.000Z,279.77
2023-02-03T09:11:37.000Z,279.77
2023-02-03T09:13:43.000Z,279.77
2023-02-03T09:16:35.000Z,279.84
2023-02-03T09:18:02.000Z,279.84
2023-02-03T09:20:08.000Z,279.9
2023-02-03T09:21:34.000Z,279.9
2023-02-03T09:23:49.000Z,279.9
2023-02-03T09:25:16.000Z,279.96
2023-02-03T09:27:22.000Z,279.96
2023-02-03T09:28:48.000Z,279.96
2023-02-03T09:30:54.000Z,280.02
2023-02-03T09:32:21.000Z,280.02
2023-02-03T09:34:27.000Z,280.02
2023-02-03T09:35:54.000Z,280.02
2023-02-03T09:38:00.000Z,280.09
2023-02-03T09:39:26.000Z,280.02
2023-02-03T09:41:32.000Z,280.02
2023-02-03T09:42:59.000Z,280.09
2023-02-03T09:45:05.000Z,280.09
2023-02-03T09:46:32.000Z,280.09
2023-02-03T09:48:38.000Z,280.15
2023-02-03T09:50:04.000Z,280.15
2023-02-03T09:52:10.000Z,280.15
2023-02-03T09:55:02.000Z,280.15
2023-02-03T09:56:28.000Z,280.09
2023-02-03T09:58:34.000Z,280.09
2023-02-03T10:00:01.000Z,280.09
2023-02-03T10:02:07.000Z,280.09
2023-02-03T10:03:34.000Z,280.09
2023-02-03T10:05:40.000Z,280.09
2023-02-03T10:07:06.000Z,280.09
2023-02-03T10:09:12.000Z,280.15
2023-02-03T10:10:39.000Z,280.21
2023-02-03T10:12:45.000Z,280.21
2023-02-03T10:14:11.000Z,280.21
2023-02-03T10:16:17.000Z,280.21
2023-02-03T10:17:44.000Z,280.21
2023-02-03T10:19:50.000Z,280.15
2023-02-03T10:21:17.000Z,280.15
2023-02-03T10:23:23.000Z,280.15
2023-02-03T10:24:49.000Z,280.15
2023-02-03T10:26:56.000Z,280.15
2023-02-03T10:28:22.000Z,280.15
2023-02-03T10:30:28.000Z,280.15
2023-02-03T10:33:20.000Z,280.15
2023-02-03T10:34:47.000Z,280.15
2023-02-03T10:36:53.000Z,280.15
2023-02-03T10:38:20.000Z,280.15
2023-02-03T10:40:26.000Z,280.15
2023-02-03T10:41:53.000Z,280.15
2023-02-03T10:43:59.000Z,280.21
2023-02-03T10:45:26.000Z,280.15
2023-02-03T10:47:32.000Z,280.21
2023-02-03T10:48:58.000Z,280.21
2023-02-03T10:51:04.000Z,280.15
2023-02-03T10:52:31.000Z,280.15
2023-02-03T10:54:37.000Z,280.15
2023-02-03T10:56:04.000Z,280.21
2023-02-03T10:58:10.000Z,280.15
2023-02-03T10:59:36.000Z,280.15
2023-02-03T11:01:42.000Z,280.15
2023-02-03T11:03:09.000Z,280.21
2023-02-03T11:05:15.000Z,280.21
2023-02-03T11:06:42.000Z,280.21
2023-02-03T11:08:48.000Z,280.21
2023-02-03T11:11:39.000Z,280.21
2023-02-03T11:13:06.000Z,280.21
2023-02-03T11:15:12.000Z,280.21
2023-02-03T11:16:38.000Z,280.15
2023-02-03T11:18:48.000Z,280.15
2023-02-03T11:20:15.000Z,280.15
2023-02-03T11:22:21.000Z,280.15
2023-02-03T11:23:47.000Z,280.15
2023-02-03T11:25:53.000Z,280.09
2023-02-03T11:27:20.000Z,280.15
2023-02-03T11:29:26.000Z,280.15
2023-02-03T11:30:53.000Z,280.21
2023-02-03T11:32:59.000Z,280.21
2023-02-03T11:34:26.000Z,280.21
2023-02-03T11:36:32.000Z,280.21
2023-02-03T11:37:58.000Z,280.21
2023-02-03T11:40:04.000Z,280.21
2023-02-03T11:41:31.000Z,280.21
2023-02-03T11:43:37.000Z,280.27
2023-02-03T11:45:04.000Z,280.21
2023-02-03T11:47:10.000Z,280.27
2023-02-03T11:50:01.000Z,280.27
2023-02-03T11:51:27.000Z,280.34
2023-02-03T11:53:34.000Z,280.34
2023-02-03T11:55:15.000Z,280.4
2023-02-03T11:57:21.000Z,280.4
2023-02-03T11:58:48.000Z,280.4
2023-02-03T12:00:54.000Z,280.46
2023-02-03T12:02:20.000Z,280.46
2023-02-03T12:04:27.000Z,280.46
2023-02-03T12:05:53.000Z,280.46
2023-02-03T12:07:59.000Z,280.46
2023-02-03T12:09:26.000Z,280.52
2023-02-03T12:11:32.000Z,280.59
2023-02-03T12:12:58.000Z,280.59
2023-02-03T12:15:05.000Z,280.59
2023-02-03T12:16:31.000Z,280.59
2023-02-03T12:18:37.000Z,280.59
2023-02-03T12:20:04.000Z,280.59
2023-02-03T12:22:10.000Z,280.59
2023-02-03T12:23:36.000Z,280.52
2023-02-03T12:25:43.000Z,280.52
2023-02-03T12:28:34.000Z,280.52
2023-02-03T12:30:00.000Z,280.46
2023-02-03T12:32:07.000Z,280.46
2023-02-03T12:33:33.000Z,280.46
2023-02-03T12:35:39.000Z,280.46
2023-02-03T12:37:06.000Z,280.46
2023-02-03T12:39:12.000Z,280.46
2023-02-03T12:40:38.000Z,280.46
2023-02-03T12:42:44.000Z,280.46
2023-02-03T12:44:11.000Z,280.52
2023-02-03T12:46:17.000Z,280.52
2023-02-03T12:47:44.000Z,280.52
2023-02-03T12:49:50.000Z,280.59
2023-02-03T12:51:16.000Z,280.59
2023-02-03T12:53:23.000Z,280.65
2023-02-03T12:54:49.000Z,280.65
2023-02-03T12:56:56.000Z,280.65
2023-02-03T12:58:22.000Z,280.65
2023-02-03T13:00:28.000Z,280.71
2023-02-03T13:01:55.000Z,280.71
2023-02-03T13:04:01.000Z,280.71
2023-02-03T13:06:53.000Z,280.77
2023-02-03T13:08:19.000Z,280.77
2023-02-03T13:10:26.000Z,280.77
2023-02-03T13:11:53.000Z,280.77
2023-02-03T13:13:59.000Z,280.71
2023-02-03T13:15:25.000Z,280.71
2023-02-03T13:17:32.000Z,280.71
2023-02-03T13:18:58.000Z,280.77
2023-02-03T13:21:04.000Z,280.77
2023-02-03T13:22:31.000Z,280.77
2023-02-03T13:24:37.000Z,280.71
2023-02-03T13:26:04.000Z,280.77
2023-02-03T13:28:10.000Z,280.77
2023-02-03T13:29:36.000Z,280.77
2023-02-03T13:31:42.000Z,280.77
2023-02-03T13:33:09.000Z,280.77
2023-02-03T13:35:15.000Z,280.77
2023-02-03T13:36:49.000Z,280.77
2023-02-03T13:38:55.000Z,280.77
2023-02-03T13:40:21.000Z,280.77
2023-02-03T13:42:28.000Z,280.77
2023-02-03T13:45:19.000Z,280.77
2023-02-03T13:46:45.000Z,280.77
2023-02-03T13:48:52.000Z,280.77
2023-02-03T13:50:18.000Z,280.77
2023-02-03T13:52:24.000Z,280.84
2023-02-03T13:53:51.000Z,280.9
2023-02-03T13:55:57.000Z,280.84
2023-02-03T13:57:23.000Z,280.84
2023-02-03T13:59:30.000Z,280.84
2023-02-03T14:00:56.000Z,280.84
2023-02-03T14:03:02.000Z,280.84
2023-02-03T14:04:29.000Z,280.84
2023-02-03T14:06:35.000Z,280.84
2023-02-03T14:08:01.000Z,280.9
2023-02-03T14:10:08.000Z,280.84
2023-02-03T14:11:34.000Z,280.77
2023-02-03T14:13:40.000Z,280.84
2023-02-03T14:15:07.000Z,280.84
2023-02-03T14:17:13.000Z,280.84
2023-02-03T14:18:39.000Z,280.84
2023-02-03T14:20:46.000Z,280.84
2023-02-03T14:23:37.000Z,280.84
2023-02-03T14:25:03.000Z,280.84
2023-02-03T14:27:09.000Z,280.84
2023-02-03T14:28:36.000Z,280.9
2023-02-03T14:30:42.000Z,280.84
2023-02-03T14:32:09.000Z,280.84
2023-02-03T14:34:15.000Z,280.84
2023-02-03T14:35:41.000Z,280.84
2023-02-03T14:37:47.000Z,280.84
2023-02-03T14:39:14.000Z,280.84
2023-02-03T14:41:20.000Z,280.9
2023-02-03T14:42:47.000Z,280.9
2023-02-03T14:44:55.000Z,280.96
2023-02-03T14:46:22.000Z,280.9
2023-02-03T14:48:28.000Z,280.9
2023-02-03T14:49:55.000Z,280.9
2023-02-03T14:52:01.000Z,280.9
2023-02-03T14:53:27.000Z,280.96
2023-02-03T14:55:33.000Z,280.9
2023-02-03T14:57:00.000Z,280.9
2023-02-03T14:59:06.000Z,280.9
2023-02-03T15:01:57.000Z,280.96
2023-02-03T15:03:24.000Z,280.96
2023-02-03T15:05:30.000Z,280.9
2023-02-03T15:06:56.000Z,280.9
2023-02-03T15:09:03.000Z,280.96
2023-02-03T15:10:29.000Z,280.96
2023-02-03T15:12:35.000Z,280.96
2023-02-03T15:14:02.000Z,280.96
2023-02-03T15:16:08.000Z,280.96
2023-02-03T15:17:35.000Z,280.96
2023-02-03T15:19:41.000Z,280.96
2023-02-03T15:21:07.000Z,280.9
2023-02-03T15:23:14.000Z,280.84
2023-02-03T15:24:40.000Z,280.9
2023-02-03T15:26:46.000Z,280.84
2023-02-03T15:28:13.000Z,280.84
2023-02-03T15:30:19.000Z,280.84
2023-02-03T15:31:46.000Z,280.77
2023-02-03T15:33:52.000Z,280.77
2023-02-03T15:35:18.000Z,280.71
2023-02-03T15:37:25.000Z,280.71
2023-02-03T15:40:16.000Z,280.71
2023-02-03T15:41:42.000Z,280.71
2023-02-03T15:43:49.000Z,280.77
2023-02-03T15:45:15.000Z,280.77
2023-02-03T15:47:22.000Z,280.71
2023-02-03T15:48:48.000Z,280.71
2023-02-03T15:50:54.000Z,280.77
2023-02-03T15:52:21.000Z,280.71
2023-02-03T15:54:27.000Z,280.65
2023-02-03T15:55:54.000Z,280.65
2023-02-03T15:58:00.000Z,280.65
2023-02-03T15:59:26.000Z,280.65
2023-02-03T16:01:32.000Z,280.59
2023-02-03T16:02:59.000Z,280.52
2023-02-03T16:05:05.000Z,280.46
2023-02-03T16:06:32.000Z,280.46
2023-02-03T16:08:38.000Z,280.46
2023-02-03T16:10:04.000Z,280.52
2023-02-03T16:12:10.000Z,280.59
2023-02-03T16:13:37.000Z,280.59
2023-02-03T16:15:43.000Z,280.59
2023-02-03T16:18:34.000Z,280.59
2023-02-03T16:20:01.000Z,280.65
2023-02-03T16:22:07.000Z,280.59
2023-02-03T16:23:34.000Z,280.59
2023-02-03T16:25:40.000Z,280.59
2023-02-03T16:27:06.000Z,280.52
2023-02-03T16:29:12.000Z,280.52
2023-02-03T16:30:39.000Z,280.52
2023-02-03T16:32:45.000Z,280.52
2023-02-03T16:34:12.000Z,280.52
2023-02-03T16:36:18.000Z,280.46
2023-02-03T16:37:45.000Z,280.4
2023-02-03T16:39:51.000Z,280.46
2023-02-03T16:41:17.000Z,280.4
2023-02-03T16:43:23.000Z,280.4
2023-02-03T16:44:50.000Z,280.4
2023-02-03T16:46:56.000Z,280.34
2023-02-03T16:48:23.000Z,280.4
2023-02-03T16:50:29.000Z,280.34
2023-02-03T16:52:03.000Z,280.4
2023-02-03T16:54:09.000Z,280.34
2023-02-03T16:57:00.000Z,280.34
2023-02-03T16:58:27.000Z,280.34
2023-02-03T17:00:33.000Z,280.27
2023-02-03T17:02:00.000Z,280.34
2023-02-03T17:04:06.000Z,280.27
2023-02-03T17:05:32.000Z,280.27
2023-02-03T17:07:39.000Z,280.27
2023-02-03T17:09:05.000Z,280.21
2023-02-03T17:11:11.000Z,280.21
2023-02-03T17:12:38.000Z,280.27
2023-02-03T17:14:44.000Z,280.27
2023-02-03T17:16:10.000Z,280.21
2023-02-03T17:18:17.000Z,280.21
2023-02-03T17:19:43.000Z,280.15
2023-02-03T17:21:49.000Z,280.09
2023-02-03T17:23:16.000Z,280.09
2023-02-03T17:25:22.000Z,280.09
2023-02-03T17:26:48.000Z,280.15
2023-02-03T17:28:55.000Z,280.09
2023-02-03T17:30:21.000Z,280.15
2023-02-03T17:32:27.000Z,280.09
2023-02-03T17:35:18.000Z,280.02
2023-02-03T17:36:45.000Z,280.09
2023-02-03T17:54:44.000Z,279.9
2023-02-03T17:56:10.000Z,279.9
2023-02-03T17:58:16.000Z,279.84
2023-02-03T17:59:43.000Z,279.84
2023-02-03T18:01:49.000Z,279.84
2023-02-03T18:03:15.000Z,279.84
2023-02-03T18:05:21.000Z,279.9
2023-02-03T18:06:48.000Z,279.84
2023-02-03T18:08:54.000Z,279.84
2023-02-03T18:10:20.000Z,279.77
2023-02-03T18:12:27.000Z,279.77
2023-02-03T18:13:53.000Z,279.77
2023-02-03T18:15:59.000Z,279.71
2023-02-03T18:17:26.000Z,279.71
2023-02-03T18:19:32.000Z,279.77
2023-02-03T18:22:23.000Z,279.77
2023-02-03T18:23:50.000Z,279.77
2023-02-03T18:25:56.000Z,279.77
2023-02-03T18:27:22.000Z,279.71
2023-02-03T18:29:28.000Z,279.77
2023-02-03T18:30:55.000Z,279.71
2023-02-03T18:33:01.000Z,279.71
2023-02-03T18:34:28.000Z,279.65
2023-02-03T18:36:34.000Z,279.59
2023-02-03T18:38:00.000Z,279.59
2023-02-03T18:40:06.000Z,279.46
2023-02-03T18:41:33.000Z,279.52
2023-02-03T18:43:39.000Z,279.46
2023-02-03T18:45:06.000Z,279.52
2023-02-03T18:47:12.000Z,279.46
2023-02-03T18:48:38.000Z,279.4
2023-02-03T18:50:44.000Z,279.27
2023-02-03T18:52:11.000Z,279.4
2023-02-03T18:54:17.000Z,279.4
2023-02-03T18:55:44.000Z,279.4
2023-02-03T18:57:50.000Z,279.27
2023-02-03T19:00:41.000Z,279.34
2023-02-03T19:02:08.000Z,279.27
2023-02-03T19:04:14.000Z,279.27
2023-02-03T19:05:40.000Z,279.21
2023-02-03T19:07:46.000Z,279.21
2023-02-03T19:09:13.000Z,279.21
2023-02-03T19:11:19.000Z,279.27
2023-02-03T19:12:45.000Z,279.27
2023-02-03T19:14:52.000Z,279.15
2023-02-03T19:16:18.000Z,279.21
2023-02-03T19:18:24.000Z,279.21
2023-02-03T19:19:51.000Z,279.21
2023-02-03T19:21:57.000Z,279.27
2023-02-03T19:23:23.000Z,279.21
2023-02-03T19:25:29.000Z,279.15
2023-02-03T19:26:56.000Z,279.15
2023-02-03T19:29:02.000Z,279.15
2023-02-03T19:30:29.000Z,279.15
2023-02-03T19:32:35.000Z,279.15
2023-02-03T19:34:02.000Z,279.21
2023-02-03T19:36:08.000Z,279.27
2023-02-03T19:38:59.000Z,279.34
2023-02-03T19:40:26.000Z,279.27
2023-02-03T19:42:32.000Z,279.27
2023-02-03T19:43:59.000Z,279.21
2023-02-03T19:46:05.000Z,279.15
2023-02-03T19:47:32.000Z,279.21
2023-02-03T19:49:38.000Z,279.27
2023-02-03T19:51:04.000Z,279.21
2023-02-03T19:53:10.000Z,279.27
2023-02-03T19:54:37.000Z,279.27
2023-02-03T19:56:43.000Z,279.27
2023-02-03T19:58:09.000Z,279.27
2023-02-03T20:00:16.000Z,279.27
2023-02-03T20:01:42.000Z,279.27
2023-02-03T20:03:48.000Z,279.4
2023-02-03T20:05:15.000Z,279.34
2023-02-03T20:07:21.000Z,279.34
2023-02-03T20:08:48.000Z,279.27
2023-02-03T20:10:54.000Z,279.27
2023-02-03T20:12:20.000Z,279.34
2023-02-03T20:14:27.000Z,279.27
2023-02-03T20:17:18.000Z,279.34
2023-02-03T20:18:44.000Z,279.27
2023-02-03T20:20:50.000Z,279.27
2023-02-03T20:22:17.000Z,279.27
2023-02-03T20:24:23.000Z,279.27
2023-02-03T20:25:50.000Z,279.27
2023-02-03T20:27:56.000Z,279.15
2023-02-03T20:29:22.000Z,279.21
2023-02-03T20:31:28.000Z,279.15
2023-02-03T20:32:55.000Z,279.09
2023-02-03T20:35:01.000Z,279.09
2023-02-03T20:36:28.000Z,279.15
2023-02-03T20:38:34.000Z,279.15
2023-02-03T20:40:00.000Z,279.15
2023-02-03T20:42:07.000Z,279.15
2023-02-03T20:43:33.000Z,279.21
2023-02-03T20:45:39.000Z,279.15
2023-02-03T20:47:06.000Z,279.21
2023-02-03T20:49:12.000Z,279.09
2023-02-03T20:50:38.000Z,279.15
2023-02-03T20:52:46.000Z,279.15
2023-02-03T20:55:38.000Z,279.15
2023-02-03T20:57:04.000Z,279.15
2023-02-03T20:59:10.000Z,279.09
2023-02-03T21:00:37.000Z,279.09
2023-02-03T21:02:43.000Z,279.09
2023-02-03T21:04:10.000Z,279.09
2023-02-03T21:06:16.000Z,278.96
2023-02-03T21:07:42.000Z,278.96
2023-02-03T21:09:48.000Z,279.02
2023-02-03T21:11:15.000Z,278.96
2023-02-03T21:13:21.000Z,278.9
2023-02-03T21:14:48.000Z,278.9
2023-02-03T21:16:54.000Z,278.9
2023-02-03T21:18:20.000Z,278.96
2023-02-03T21:20:26.000Z,278.96
2023-02-03T21:21:53.000Z,278.96
2023-02-03T21:24:00.000Z,278.9
2023-02-03T21:25:26.000Z,278.9
2023-02-03T21:27:32.000Z,278.9
2023-02-03T21:28:59.000Z,278.96
2023-02-03T21:31:05.000Z,278.84
2023-02-03T21:33:56.000Z,278.84
2023-02-03T21:35:23.000Z,278.9
2023-02-03T21:37:29.000Z,278.84
2023-02-03T21:38:55.000Z,278.9
2023-02-03T21:41:02.000Z,278.84
2023-02-03T21:42:28.000Z,278.77
2023-02-03T21:44:34.000Z,278.77
2023-02-03T21:46:01.000Z,278.84
2023-02-03T21:48:07.000Z,278.84
2023-02-03T21:49:33.000Z,278.77
2023-02-03T21:51:39.000Z,278.71
2023-02-03T21:53:06.000Z,278.71
2023-02-03T21:55:12.000Z,278.77
2023-02-03T21:56:38.000Z,278.71
2023-02-03T21:58:45.000Z,278.71
2023-02-03T22:00:11.000Z,278.77
2023-02-03T22:02:17.000Z,278.77
2023-02-03T22:03:44.000Z,278.84
2023-02-03T22:05:50.000Z,278.71
2023-02-03T22:07:16.000Z,278.71
2023-02-03T22:09:22.000Z,278.77
2023-02-03T22:12:14.000Z,278.71
2023-02-03T22:13:40.000Z,278.77
2023-02-03T22:15:46.000Z,278.65
2023-02-03T22:17:13.000Z,278.65
2023-02-03T22:19:19.000Z,278.59
2023-02-03T22:20:45.000Z,278.65
2023-02-03T22:22:52.000Z,278.71
2023-02-03T22:24:18.000Z,278.77
2023-02-03T22:26:24.000Z,278.71
2023-02-03T22:27:51.000Z,278.71
2023-02-03T22:29:57.000Z,278.71
2023-02-03T22:31:23.000Z,278.65
2023-02-03T22:33:30.000Z,278.46
2023-02-03T22:34:56.000Z,278.59
2023-02-03T22:37:02.000Z,278.59
2023-02-03T22:38:29.000Z,278.59
2023-02-03T22:40:35.000Z,278.59
2023-02-03T22:42:01.000Z,278.52
2023-02-03T22:44:08.000Z,278.4
2023-02-03T22:45:34.000Z,278.46
2023-02-03T22:47:40.000Z,278.4
2023-02-03T22:50:31.000Z,278.4
2023-02-03T22:52:01.000Z,278.4
2023-02-03T22:54:07.000Z,278.4
2023-02-03T22:55:33.000Z,278.34
2023-02-03T22:57:39.000Z,278.34
2023-02-03T22:59:06.000Z,278.27
2023-02-03T23:01:12.000Z,278.27
2023-02-03T23:02:38.000Z,278.27
2023-02-03T23:04:45.000Z,278.34
2023-02-03T23:06:11.000Z,278.46
2023-02-03T23:08:17.000Z,278.34
2023-02-03T23:09:44.000Z,278.34